Terminal Aerodrome Forecast
Issued by NWS

Home | Current Version | Previous Version | Text Only | Print | Product List | Glossary On
Versions: 1 2 3 4 5 6 7 8 9 10 11 12 13 14 15 16 17 18 19 20 21 22 23 24 25 26 27 28 29 30 31 32 33 34
000
FTUS43 KGRR 220100 AAA
TAFMKG
TAF AMD
KMKG 220149Z 2202/2224 00000KT 5SM BR SCT130
     FM220900 18003KT 4SM BR OVC007
     FM221200 12002KT 1 1/2SM BR OVC007
     FM221500 16004KT 2SM BR OVC015
     FM221800 22006KT P6SM BKN050=

USA.gov is the U.S. government's official web portal to all federal, state and local government web resources and services.